createdAt,value
2022-12-29T00:02:20.881Z,99717.88
2022-12-29T00:04:47.864Z,99718.72
2022-12-29T00:07:14.340Z,99707.28
2022-12-29T00:09:40.807Z,99715.06
2022-12-29T00:12:07.626Z,99707.91
2022-12-29T00:14:52.807Z,99700.00
2022-12-29T00:17:19.415Z,99692.13
2022-12-29T00:20:04.644Z,99690.41
2022-12-29T00:22:49.606Z,99677.34
2022-12-29T00:25:34.894Z,99691.25
2022-12-29T00:28:19.986Z,99693.84
2022-12-29T00:31:05.138Z,99690.31
2022-12-29T00:33:52.769Z,99681.59
2022-12-29T00:36:32.594Z,99675.41
2022-12-29T00:39:27.114Z,99671.03
2022-12-29T00:42:12.444Z,99657.91
2022-12-29T00:44:39.011Z,99663.09
2022-12-29T00:47:05.659Z,99663.97
2022-12-29T00:49:33.808Z,99652.59
2022-12-29T00:52:09.070Z,99642.97
2022-12-29T00:54:38.605Z,99642.97
2022-12-29T00:57:07.611Z,99648.19
2022-12-29T00:59:36.354Z,99642.06
2022-12-29T01:02:03.090Z,99637.69
2022-12-29T01:04:29.750Z,99634.16
2022-12-29T01:06:56.288Z,99632.44
2022-12-29T01:09:41.622Z,99633.31
2022-12-29T01:12:09.220Z,99624.59
2022-12-29T01:14:36.459Z,99636.84
2022-12-29T01:17:02.945Z,99635.06
2022-12-29T01:19:29.598Z,99627.22
2022-12-29T01:21:56.088Z,99634.19
2022-12-29T01:24:23.196Z,99627.28
2022-12-29T01:26:50.357Z,99620.31
2022-12-29T01:29:17.500Z,99621.19
2022-12-29T01:31:44.967Z,99617.72
2022-12-29T01:34:11.791Z,99615.97
2022-12-29T01:36:38.375Z,99619.50
2022-12-29T01:39:04.990Z,99612.56
2022-12-29T01:41:32.525Z,99613.44
2022-12-29T01:44:02.135Z,99609.06
2022-12-29T01:46:40.060Z,99615.09
2022-12-29T01:49:09.361Z,99607.28
2022-12-29T01:51:51.920Z,99606.44
2022-12-29T01:54:31.879Z,99598.63
2022-12-29T01:57:02.620Z,99588.22
2022-12-29T01:59:32.575Z,99588.28
2022-12-29T02:01:59.791Z,99591.84
2022-12-29T02:04:27.858Z,99582.25
2022-12-29T02:07:00.628Z,99577.94
2022-12-29T02:09:27.492Z,99568.34
2022-12-29T02:11:54.992Z,99574.50
2022-12-29T02:14:21.493Z,99572.75
2022-12-29T02:16:59.922Z,99570.97
2022-12-29T02:19:44.344Z,99573.63
2022-12-29T02:22:24.085Z,99573.63
2022-12-29T02:25:15.348Z,99567.50
2022-12-29T02:28:14.047Z,99570.97
2022-12-29T02:31:00.159Z,99571.00
2022-12-29T02:33:56.034Z,99568.38
2022-12-29T02:36:48.340Z,99559.63
2022-12-29T02:39:24.412Z,99566.59
2022-12-29T02:42:03.516Z,99554.38
2022-12-29T02:44:51.499Z,99551.75
2022-12-29T02:47:37.891Z,99559.59
2022-12-29T02:50:19.422Z,99549.09
2022-12-29T02:52:58.338Z,99555.22
2022-12-29T02:55:24.898Z,99551.72
2022-12-29T02:58:15.714Z,99548.16
2022-12-29T03:01:21.188Z,99544.59
2022-12-29T03:04:20.129Z,99541.06
2022-12-29T03:07:20.760Z,99546.25
2022-12-29T03:10:19.482Z,99541.88
2022-12-29T03:13:26.258Z,99530.53
2022-12-29T03:16:21.070Z,99535.78
2022-12-29T03:19:11.557Z,99525.34
2022-12-29T03:22:01.458Z,99525.34
2022-12-29T03:24:31.108Z,99524.56
2022-12-29T03:27:00.699Z,99528.09
2022-12-29T03:29:32.048Z,99536.84
2022-12-29T03:32:00.643Z,99542.94
2022-12-29T03:34:29.057Z,99546.41
2022-12-29T03:37:02.384Z,99561.16
2022-12-29T03:39:29.775Z,99545.34
2022-12-29T03:42:02.412Z,99540.88
2022-12-29T03:44:34.364Z,99539.91
2022-12-29T03:47:00.890Z,99530.25
2022-12-29T03:49:27.402Z,99532.00
2022-12-29T03:51:53.950Z,99538.97
2022-12-29T03:54:20.682Z,99538.94
2022-12-29T03:56:47.205Z,99538.09
2022-12-29T03:59:13.940Z,99539.88
2022-12-29T04:01:41.362Z,99531.19
2022-12-29T04:04:08.035Z,99536.44
2022-12-29T04:06:34.611Z,99530.34
2022-12-29T04:09:01.211Z,99534.66
2022-12-29T04:11:32.897Z,99525.13
2022-12-29T04:13:59.884Z,99519.03
2022-12-29T04:16:26.434Z,99517.31
2022-12-29T04:18:52.983Z,99516.44
2022-12-29T04:21:19.501Z,99502.50
2022-12-29T04:23:46.071Z,99505.16
2022-12-29T04:26:13.207Z,99492.13
2022-12-29T04:28:40.010Z,99490.34
2022-12-29T04:31:06.683Z,99492.13
2022-12-29T04:33:34.071Z,99491.31
2022-12-29T04:36:00.655Z,99487.88
2022-12-29T04:38:27.172Z,99485.28
2022-12-29T04:40:53.775Z,99486.19
2022-12-29T04:43:20.518Z,99484.47
2022-12-29T04:45:48.757Z,99490.56
2022-12-29T04:48:15.930Z,99491.44
2022-12-29T04:50:42.960Z,99493.22
2022-12-29T04:53:09.654Z,99489.72
2022-12-29T04:55:36.240Z,99490.66
2022-12-29T04:58:02.721Z,99495.88
2022-12-29T05:00:29.298Z,99490.66
2022-12-29T05:02:55.983Z,99488.03
2022-12-29T05:05:22.636Z,99495.03
2022-12-29T05:07:49.205Z,99490.66
2022-12-29T05:10:15.736Z,99489.75
2022-12-29T05:12:42.318Z,99490.63
2022-12-29T05:15:10.454Z,99486.25
2022-12-29T05:17:37.248Z,99488.00
2022-12-29T05:20:06.053Z,99476.63
2022-12-29T05:22:32.549Z,99468.78
2022-12-29T05:24:59.578Z,99474.00
2022-12-29T05:27:26.165Z,99468.75
2022-12-29T05:29:52.662Z,99467.03
2022-12-29T05:32:19.196Z,99458.28
2022-12-29T05:34:45.696Z,99454.78
2022-12-29T05:37:12.297Z,99450.41
2022-12-29T05:39:38.803Z,99450.41
2022-12-29T05:42:05.331Z,99450.41
2022-12-29T05:44:31.877Z,99449.53
2022-12-29T05:46:58.454Z,99449.53
2022-12-29T05:49:25.046Z,99453.06
2022-12-29T05:51:51.564Z,99438.19
2022-12-29T05:54:18.046Z,99446.94
2022-12-29T05:56:45.133Z,99456.56
2022-12-29T05:59:11.708Z,99459.19
2022-12-29T06:01:38.400Z,99456.56
2022-12-29T06:04:05.042Z,99451.38
2022-12-29T06:06:31.539Z,99453.13
2022-12-29T06:08:58.074Z,99458.34
2022-12-29T06:11:24.626Z,99455.75
2022-12-29T06:13:51.160Z,99461.88
2022-12-29T06:16:17.839Z,99452.28
2022-12-29T06:18:44.468Z,99458.38
2022-12-29T06:21:10.958Z,99451.38
2022-12-29T06:23:37.513Z,99457.53
2022-12-29T06:26:04.107Z,99454.03
2022-12-29T06:28:30.588Z,99454.91
2022-12-29T06:30:57.159Z,99442.66
2022-12-29T06:33:23.874Z,99439.16
2022-12-29T06:35:50.644Z,99447.03
2022-12-29T06:38:17.185Z,99447.03
2022-12-29T06:40:46.164Z,99451.41
2022-12-29T06:43:13.002Z,99454.03
2022-12-29T06:45:41.343Z,99456.66
2022-12-29T06:48:08.628Z,99452.31
2022-12-29T06:50:35.435Z,99452.28
2022-12-29T06:53:01.960Z,99456.69
2022-12-29T06:55:29.286Z,99456.66
2022-12-29T06:57:59.745Z,99457.53
2022-12-29T07:00:26.503Z,99455.78
2022-12-29T07:02:53.445Z,99461.03
2022-12-29T07:05:20.146Z,99459.25
2022-12-29T07:07:46.957Z,99470.63
2022-12-29T07:10:13.583Z,99463.63
2022-12-29T07:12:40.110Z,99470.63
2022-12-29T07:15:07.153Z,99467.97
2022-12-29T07:17:33.735Z,99457.50
2022-12-29T07:20:00.508Z,99469.72
2022-12-29T07:22:27.063Z,99469.72
2022-12-29T07:31:31.649Z,99451.25
2022-12-29T07:33:58.214Z,99456.50
2022-12-29T07:36:28.004Z,99477.50
2022-12-29T07:38:57.360Z,99460.88
2022-12-29T07:41:24.046Z,99462.59
2022-12-29T07:43:50.600Z,99458.25
2022-12-29T07:46:55.434Z,99461.75
2022-12-29T07:49:03.576Z,99468.75
2022-12-29T07:51:30.072Z,99457.34
2022-12-29T07:53:56.599Z,99466.97
2022-12-29T07:56:23.121Z,99451.19
2022-12-29T07:58:50.237Z,99451.09
2022-12-29T08:01:17.206Z,99456.31
2022-12-29T08:03:43.905Z,99457.13
2022-12-29T08:06:11.812Z,99461.47
2022-12-29T08:08:39.151Z,99458.78
2022-12-29T08:11:05.615Z,99457.00
2022-12-29T08:13:32.113Z,99469.19
2022-12-29T08:16:00.041Z,99463.88
2022-12-29T08:18:26.692Z,99463.00
2022-12-29T08:20:55.861Z,99457.72
2022-12-29T08:23:22.639Z,99467.31
2022-12-29T08:25:58.908Z,99469.03
2022-12-29T08:28:25.446Z,99476.91
2022-12-29T08:30:52.047Z,99483.03
2022-12-29T08:33:18.701Z,99474.28
2022-12-29T08:35:46.008Z,99478.59
2022-12-29T08:38:12.675Z,99482.97
2022-12-29T08:40:39.152Z,99473.34
2022-12-29T08:43:06.342Z,99463.75
2022-12-29T08:45:33.441Z,99467.22
2022-12-29T08:47:59.934Z,99475.19
2022-12-29T08:50:26.460Z,99479.63
2022-12-29T08:52:52.979Z,99482.31
2022-12-29T08:55:19.679Z,99493.75
2022-12-29T08:57:46.324Z,99476.34
2022-12-29T09:00:13.225Z,99486.03
2022-12-29T09:02:40.007Z,99490.44
2022-12-29T09:05:07.203Z,99486.94
2022-12-29T09:07:33.838Z,99486.91
2022-12-29T09:10:00.346Z,99479.94
2022-12-29T09:12:30.212Z,99483.47
2022-12-29T09:14:59.714Z,99481.69
2022-12-29T09:17:44.591Z,99486.91
2022-12-29T09:20:16.877Z,99482.53
2022-12-29T09:22:44.580Z,99483.47
2022-12-29T09:25:12.185Z,99480.84
2022-12-29T09:27:39.401Z,99479.03
2022-12-29T09:30:08.787Z,99496.50
2022-12-29T09:32:40.424Z,99503.44
2022-12-29T09:35:10.336Z,99491.13
2022-12-29T09:37:37.255Z,99487.56
2022-12-29T09:40:05.221Z,99486.63
2022-12-29T09:42:50.695Z,99491.78
2022-12-29T09:45:30.294Z,99487.34
2022-12-29T09:47:56.929Z,99476.81
2022-12-29T09:50:31.446Z,99476.00
2022-12-29T09:53:18.586Z,99477.75
2022-12-29T09:55:55.215Z,99470.66
2022-12-29T09:58:36.193Z,99462.72
2022-12-29T10:01:27.434Z,99466.16
2022-12-29T10:03:57.709Z,99455.59
2022-12-29T10:06:56.206Z,99450.31
2022-12-29T10:09:31.001Z,99456.38
2022-12-29T10:12:00.584Z,99450.19
2022-12-29T10:14:45.470Z,99446.66
2022-12-29T10:17:23.841Z,99434.38
2022-12-29T10:20:27.509Z,99443.03
2022-12-29T10:23:21.682Z,99443.75
2022-12-29T10:25:48.704Z,99440.13
2022-12-29T10:28:44.518Z,99431.28
2022-12-29T10:31:21.076Z,99436.50
2022-12-29T10:33:51.357Z,99435.78
2022-12-29T10:36:49.241Z,99431.34
2022-12-29T10:39:24.546Z,99435.66
2022-12-29T10:41:58.610Z,99442.63
2022-12-29T10:44:33.667Z,99433.72
2022-12-29T10:47:05.813Z,99434.56
2022-12-29T10:49:38.179Z,99426.69
2022-12-29T10:52:05.418Z,99425.78
2022-12-29T10:54:46.998Z,99437.16
2022-12-29T10:57:18.593Z,99439.69
2022-12-29T10:59:45.164Z,99432.66
2022-12-29T11:02:19.235Z,99443.97
2022-12-29T11:05:15.927Z,99434.16
2022-12-29T11:07:42.924Z,99432.38
2022-12-29T11:10:22.086Z,99429.66
2022-12-29T11:13:04.386Z,99430.50
2022-12-29T11:15:42.318Z,99425.94
2022-12-29T11:18:26.759Z,99423.16
2022-12-29T11:21:01.755Z,99420.19
2022-12-29T11:23:40.496Z,99418.47
2022-12-29T11:26:23.954Z,99407.97
2022-12-29T11:29:17.609Z,99408.06
2022-12-29T11:31:50.906Z,99403.66
2022-12-29T11:34:26.191Z,99410.78
2022-12-29T11:37:01.085Z,99394.94
2022-12-29T11:39:34.027Z,99407.25
2022-12-29T11:42:03.568Z,99394.09
2022-12-29T11:44:38.121Z,99397.56
2022-12-29T11:47:06.489Z,99385.31
2022-12-29T11:49:33.283Z,99392.53
2022-12-29T11:52:01.227Z,99383.91
2022-12-29T11:54:38.250Z,99375.19
2022-12-29T11:57:14.394Z,99367.31
2022-12-29T11:59:43.592Z,99382.19
2022-12-29T12:02:45.851Z,99383.16
2022-12-29T12:05:21.131Z,99381.53
2022-12-29T12:07:55.409Z,99390.94
2022-12-29T12:10:32.972Z,99387.38
2022-12-29T12:13:05.034Z,99381.41
2022-12-29T12:15:45.377Z,99377.00
2022-12-29T12:18:26.617Z,99383.19
2022-12-29T12:20:58.005Z,99377.16
2022-12-29T12:24:14.545Z,99380.69
2022-12-29T12:26:55.469Z,99377.31
2022-12-29T12:29:30.079Z,99366.88
2022-12-29T12:32:00.706Z,99367.81
2022-12-29T12:34:37.292Z,99369.53
2022-12-29T12:37:12.009Z,99369.63
2022-12-29T12:39:50.756Z,99369.63
2022-12-29T12:42:23.166Z,99373.09
2022-12-29T12:45:26.174Z,99365.28
2022-12-29T12:48:11.792Z,99365.22
2022-12-29T12:50:50.505Z,99364.38
2022-12-29T12:53:20.014Z,99367.00
2022-12-29T12:56:02.329Z,99360.00
2022-12-29T12:58:44.423Z,99364.38
2022-12-29T13:02:08.584Z,99359.09
2022-12-29T13:05:03.467Z,99354.63
2022-12-29T13:07:54.594Z,99367.75
2022-12-29T13:10:42.031Z,99371.34
2022-12-29T13:13:38.932Z,99368.75
2022-12-29T13:16:23.986Z,99371.44
2022-12-29T13:18:57.377Z,99380.22
2022-12-29T13:21:35.639Z,99372.31
2022-12-29T13:24:21.182Z,99376.66
2022-12-29T13:26:56.181Z,99370.50
2022-12-29T13:29:42.965Z,99373.06
2022-12-29T13:32:18.662Z,99374.75
2022-12-29T13:34:54.499Z,99385.22
2022-12-29T13:37:26.902Z,99393.13
2022-12-29T13:40:00.640Z,99391.34
2022-12-29T13:42:28.424Z,99396.56
2022-12-29T13:45:06.213Z,99399.22
2022-12-29T13:47:39.564Z,99407.03
2022-12-29T13:50:13.440Z,99405.22
2022-12-29T13:52:49.026Z,99408.66
2022-12-29T13:55:31.298Z,99408.69
2022-12-29T13:58:04.114Z,99404.22
2022-12-29T14:00:41.499Z,99420.06
2022-12-29T14:03:45.426Z,99414.06
2022-12-29T14:06:25.519Z,99403.53
2022-12-29T14:08:57.014Z,99408.81
2022-12-29T14:11:32.354Z,99408.03
2022-12-29T14:14:00.652Z,99402.03
2022-12-29T14:16:31.447Z,99410.91
2022-12-29T14:19:10.699Z,99412.63
2022-12-29T14:21:38.540Z,99410.84
2022-12-29T14:24:29.107Z,99409.97
2022-12-29T14:26:55.625Z,99408.16
2022-12-29T14:29:25.163Z,99412.56
2022-12-29T14:31:54.037Z,99406.50
2022-12-29T14:34:20.700Z,99403.94
2022-12-29T14:36:54.195Z,99403.97
2022-12-29T14:39:39.428Z,99412.81
2022-12-29T14:42:11.763Z,99417.28
2022-12-29T14:44:57.788Z,99412.09
2022-12-29T14:47:39.862Z,99415.75
2022-12-29T14:50:13.425Z,99409.66
2022-12-29T14:53:00.104Z,99414.44
2022-12-29T14:55:58.901Z,99411.09
2022-12-29T14:58:39.615Z,99411.22
2022-12-29T15:01:19.884Z,99405.25
2022-12-29T15:03:52.572Z,99401.84
2022-12-29T15:06:23.310Z,99403.66
2022-12-29T15:09:01.500Z,99409.84
2022-12-29T15:11:37.043Z,99402.84
2022-12-29T15:14:05.238Z,99405.50
2022-12-29T15:16:38.031Z,99398.50
2022-12-29T15:19:06.254Z,99403.75
2022-12-29T15:21:37.250Z,99406.38
2022-12-29T15:24:05.118Z,99415.97
2022-12-29T15:26:50.077Z,99411.63
2022-12-29T15:29:39.655Z,99416.00
2022-12-29T15:32:25.590Z,99414.28
2022-12-29T15:34:57.831Z,99416.91
2022-12-29T15:37:27.887Z,99422.22
2022-12-29T15:39:56.090Z,99431.84
2022-12-29T15:42:36.391Z,99423.97
2022-12-29T15:45:13.374Z,99419.63
2022-12-29T15:47:42.411Z,99429.28
2022-12-29T15:50:27.226Z,99427.56
2022-12-29T15:52:53.791Z,99429.34
2022-12-29T15:55:42.579Z,99431.97
2022-12-29T15:58:21.985Z,99427.63
2022-12-29T16:00:51.356Z,99436.41
2022-12-29T16:03:18.466Z,99434.69
2022-12-29T16:05:53.102Z,99423.34
2022-12-29T16:08:32.234Z,99429.47
2022-12-29T16:10:59.549Z,99431.22
2022-12-29T16:13:34.191Z,99422.50
2022-12-29T16:16:13.110Z,99432.13
2022-12-29T16:18:40.382Z,99431.25
2022-12-29T16:21:17.897Z,99430.41
2022-12-29T16:23:49.945Z,99433.03
2022-12-29T16:26:19.402Z,99426.03
2022-12-29T16:28:52.439Z,99431.28
2022-12-29T16:31:23.946Z,99426.94
2022-12-29T16:33:53.785Z,99419.91
2022-12-29T16:36:35.159Z,99435.66
2022-12-29T16:39:23.160Z,99425.16
2022-12-29T16:41:51.298Z,99417.28
2022-12-29T16:44:22.997Z,99431.28
2022-12-29T16:47:02.790Z,99432.13
2022-12-29T16:49:31.316Z,99435.66
2022-12-29T16:51:58.236Z,99438.28
2022-12-29T16:54:31.495Z,99431.28
2022-12-29T16:56:58.185Z,99440.91
2022-12-29T16:59:37.031Z,99442.63
2022-12-29T17:02:14.118Z,99445.25
2022-12-29T17:04:40.783Z,99442.63
2022-12-29T17:07:18.849Z,99447.88
2022-12-29T17:09:45.489Z,99451.34
2022-12-29T17:12:18.258Z,99450.50
2022-12-29T17:15:21.222Z,99450.47
2022-12-29T17:17:50.178Z,99460.97
2022-12-29T17:20:18.230Z,99457.47
2022-12-29T17:22:45.534Z,99458.34
2022-12-29T17:25:18.637Z,99458.34
2022-12-29T17:27:59.054Z,99460.13
2022-12-29T17:30:33.234Z,99453.97
2022-12-29T17:33:13.325Z,99458.38
2022-12-29T17:35:40.069Z,99457.50
2022-12-29T17:38:35.918Z,99455.75
2022-12-29T17:41:02.496Z,99458.38
2022-12-29T17:43:36.347Z,99462.72
2022-12-29T17:46:07.112Z,99461.00
2022-12-29T17:48:33.759Z,99456.59
2022-12-29T17:51:00.372Z,99458.38
2022-12-29T17:53:29.698Z,99465.34
2022-12-29T17:55:56.634Z,99468.88
2022-12-29T17:58:24.542Z,99465.34
2022-12-29T18:00:54.089Z,99466.25
2022-12-29T18:03:28.360Z,99478.50
2022-12-29T18:05:55.891Z,99475.88
2022-12-29T18:08:22.514Z,99484.59
2022-12-29T18:10:51.582Z,99490.72
2022-12-29T18:13:24.316Z,99479.34
2022-12-29T18:15:52.695Z,99487.22
2022-12-29T18:18:21.573Z,99490.69
2022-12-29T18:20:49.530Z,99499.47
2022-12-29T18:23:24.755Z,99495.09
2022-12-29T18:26:03.825Z,99498.56
2022-12-29T18:28:30.566Z,99493.31
2022-12-29T18:30:59.729Z,99502.06
2022-12-29T18:33:27.224Z,99502.09
2022-12-29T18:36:02.417Z,99491.59
2022-12-29T18:38:29.879Z,99492.50
2022-12-29T18:40:57.778Z,99508.22
2022-12-29T18:43:25.037Z,99489.00
2022-12-29T18:45:51.897Z,99497.72
2022-12-29T18:48:19.886Z,99493.34
2022-12-29T18:50:49.133Z,99494.22
2022-12-29T18:53:17.432Z,99497.72
2022-12-29T18:55:45.308Z,99509.97
2022-12-29T18:58:12.334Z,99498.59
2022-12-29T19:00:39.734Z,99492.47
2022-12-29T19:03:06.563Z,99486.38
2022-12-29T19:05:38.776Z,99494.22
2022-12-29T19:08:06.266Z,99475.00
2022-12-29T19:10:33.404Z,99482.00
2022-12-29T19:13:00.651Z,99477.63
2022-12-29T19:15:30.262Z,99484.63
2022-12-29T19:18:32.843Z,99494.22
2022-12-29T19:20:47.234Z,99481.13
2022-12-29T19:23:16.935Z,99484.59
2022-12-29T19:25:44.607Z,99481.13
2022-12-29T19:28:18.916Z,99473.25
2022-12-29T19:30:51.967Z,99478.50
2022-12-29T19:33:20.887Z,99492.47
2022-12-29T19:35:47.678Z,99477.63
2022-12-29T19:38:14.731Z,99475.88
2022-12-29T19:40:43.782Z,99479.38
2022-12-29T19:43:12.158Z,99480.25
2022-12-29T19:45:42.777Z,99486.38
2022-12-29T19:48:14.129Z,99484.59
2022-12-29T19:50:40.773Z,99487.25
2022-12-29T19:53:07.369Z,99493.38
2022-12-29T19:55:37.126Z,99492.50
2022-12-29T19:58:04.021Z,99489.88
2022-12-29T20:00:30.700Z,99497.72
2022-12-29T20:02:57.437Z,99501.22
2022-12-29T20:05:24.108Z,99503.84
2022-12-29T20:07:50.636Z,99500.34
2022-12-29T20:10:17.261Z,99499.47
2022-12-29T20:12:43.836Z,99491.59
2022-12-29T20:15:12.692Z,99491.63
2022-12-29T20:20:27.315Z,99507.34
2022-12-29T20:22:53.949Z,99501.22
2022-12-29T20:28:06.988Z,99507.34
2022-12-29T20:30:33.559Z,99518.69
2022-12-29T20:33:06.115Z,99522.22
2022-12-29T20:35:34.788Z,99532.69
2022-12-29T20:38:01.327Z,99530.09
2022-12-29T20:40:27.928Z,99530.09
2022-12-29T20:42:54.476Z,99540.56
2022-12-29T20:45:20.984Z,99537.94
2022-12-29T20:47:47.529Z,99540.56
2022-12-29T20:50:15.225Z,99542.31
2022-12-29T20:52:41.959Z,99544.06
2022-12-29T20:55:08.819Z,99527.44
2022-12-29T20:58:05.628Z,99542.31
2022-12-29T21:00:22.795Z,99540.56
2022-12-29T21:02:49.817Z,99527.44
2022-12-29T21:05:27.547Z,99540.56
2022-12-29T21:07:55.496Z,99533.56
2022-12-29T21:10:22.558Z,99536.16
2022-12-29T21:12:49.203Z,99543.16
2022-12-29T21:15:17.041Z,99544.06
2022-12-29T21:17:44.539Z,99538.81
2022-12-29T21:20:19.963Z,99537.91
2022-12-29T21:22:47.706Z,99538.78
2022-12-29T21:25:14.389Z,99535.28
2022-12-29T21:27:46.959Z,99535.31
2022-12-29T21:30:13.871Z,99545.78
2022-12-29T21:32:41.514Z,99540.53
2022-12-29T21:35:09.599Z,99536.16
2022-12-29T21:37:36.810Z,99542.28
2022-12-29T21:40:04.754Z,99554.50
2022-12-29T21:42:31.705Z,99553.59
2022-12-29T21:45:24.307Z,99552.72
2022-12-29T21:48:16.153Z,99555.31
2022-12-29T21:51:03.945Z,99551.84
2022-12-29T21:53:38.070Z,99557.06
2022-12-29T21:56:09.293Z,99565.78
2022-12-29T21:58:57.654Z,99562.28
2022-12-29T22:01:44.442Z,99550.91
2022-12-29T22:04:34.956Z,99553.53
2022-12-29T22:07:21.509Z,99560.47
2022-12-29T22:10:07.012Z,99548.19
2022-12-29T22:12:52.563Z,99538.53
2022-12-29T22:15:19.248Z,99545.50
2022-12-29T22:17:51.122Z,99538.53
2022-12-29T22:20:19.926Z,99541.94
2022-12-29T22:22:47.097Z,99537.56
2022-12-29T22:25:14.517Z,99535.78
2022-12-29T22:27:41.535Z,99525.28
2022-12-29T22:30:09.034Z,99520.94
2022-12-29T22:32:35.985Z,99520.06
2022-12-29T22:35:07.824Z,99516.59
2022-12-29T22:37:35.411Z,99523.53
2022-12-29T22:40:02.170Z,99523.53
2022-12-29T22:42:28.704Z,99520.91
2022-12-29T22:44:55.260Z,99528.75
2022-12-29T22:47:22.048Z,99527.88
2022-12-29T22:49:48.599Z,99527.00
2022-12-29T22:52:15.084Z,99527.94
2022-12-29T22:54:41.573Z,99514.00
2022-12-29T22:57:08.079Z,99532.28
2022-12-29T22:59:34.802Z,99527.94
2022-12-29T23:02:01.608Z,99513.97
2022-12-29T23:07:15.067Z,99521.84
2022-12-29T23:09:41.535Z,99518.38
2022-12-29T23:12:08.067Z,99511.38
2022-12-29T23:14:34.640Z,99510.56
2022-12-29T23:17:01.144Z,99526.25
2022-12-29T23:19:27.651Z,99527.19
2022-12-29T23:21:54.192Z,99527.19
2022-12-29T23:24:20.707Z,99521.06
2022-12-29T23:26:48.166Z,99523.66
2022-12-29T23:29:16.944Z,99521.06
2022-12-29T23:31:44.113Z,99523.69
2022-12-29T23:34:13.075Z,99531.53
2022-12-29T23:36:40.576Z,99532.44
2022-12-29T23:39:08.944Z,99522.81
2022-12-29T23:41:35.572Z,99525.44
2022-12-29T23:44:02.168Z,99530.66
2022-12-29T23:46:29.786Z,99533.28
2022-12-29T23:48:56.764Z,99551.59
2022-12-29T23:51:23.302Z,99555.09
2022-12-29T23:53:49.827Z,99549.84
2022-12-29T23:56:19.518Z,99552.47
2022-12-29T23:58:46.239Z,99562.97
